createdAt,value
2023-05-19T00:00:35.091Z,10.0725
2023-05-19T00:01:35.171Z,9.9726
2023-05-19T00:02:36.423Z,10.0449
2023-05-19T00:03:37.877Z,9.9528
2023-05-19T00:04:39.954Z,9.9708
2023-05-19T00:05:41.831Z,9.9527
2023-05-19T00:06:43.072Z,10.0766
2023-05-19T00:07:44.575Z,10.0741
2023-05-19T00:08:45.840Z,10.0790
2023-05-19T00:09:47.632Z,10.0161
2023-05-19T00:10:49.751Z,9.9806
2023-05-19T00:11:51.456Z,10.0082
2023-05-19T00:12:53.869Z,9.9720
2023-05-19T00:13:53.142Z,9.9915
2023-05-19T00:14:53.672Z,9.8941
2023-05-19T00:15:55.637Z,9.9247
2023-05-19T00:16:57.303Z,9.9743
2023-05-19T00:17:58.310Z,9.9259
2023-05-19T00:18:59.318Z,10.0102
2023-05-19T00:22:02.910Z,9.9871
2023-05-19T00:23:03.955Z,10.0503
2023-05-19T00:24:06.690Z,10.1357
2023-05-19T00:25:08.371Z,10.0363
2023-05-19T00:26:09.995Z,10.1064
2023-05-19T00:27:10.861Z,10.1505
2023-05-19T00:28:12.647Z,10.0017
2023-05-19T00:29:14.263Z,9.9158
2023-05-19T00:30:16.181Z,9.8413
2023-05-19T00:31:16.431Z,9.8965
2023-05-19T00:32:18.382Z,9.8443
2023-05-19T00:35:21.785Z,9.9972
2023-05-19T00:36:22.808Z,9.9248
2023-05-19T00:37:23.870Z,9.8544
2023-05-19T00:38:25.762Z,9.8900
2023-05-19T00:39:27.444Z,9.7619
2023-05-19T00:40:28.560Z,9.7028
2023-05-19T00:41:30.535Z,9.7947
2023-05-19T00:42:30.814Z,9.8007
2023-05-19T00:43:31.697Z,9.8347
2023-05-19T00:44:32.412Z,9.8582
2023-05-19T00:45:34.263Z,9.7931
2023-05-19T00:47:42.680Z,9.6941
2023-05-19T00:49:05.549Z,9.7225
2023-05-19T00:50:06.970Z,9.7092
2023-05-19T00:51:08.887Z,9.6575
2023-05-19T00:52:09.924Z,9.6180
2023-05-19T00:54:12.461Z,9.7633
2023-05-19T00:55:13.397Z,9.6281
2023-05-19T00:56:15.184Z,9.7059
2023-05-19T00:57:16.527Z,9.7422
2023-05-19T00:58:17.850Z,9.6623
2023-05-19T00:59:19.209Z,9.7216
2023-05-19T01:00:21.465Z,9.9233
2023-05-19T01:06:27.875Z,9.6279
2023-05-19T01:07:28.094Z,9.5221
2023-05-19T01:08:29.212Z,9.5147
2023-05-19T01:09:31.721Z,9.4431
2023-05-19T01:10:34.203Z,9.5078
2023-05-19T01:12:35.853Z,9.4176
2023-05-19T01:13:38.651Z,9.4421
2023-05-19T01:14:38.562Z,9.3301
2023-05-19T01:15:39.377Z,9.4194
2023-05-19T01:16:40.211Z,9.3494
2023-05-19T01:17:41.382Z,9.2850
2023-05-19T01:18:42.525Z,9.3337
2023-05-19T01:19:44.183Z,9.3248
2023-05-19T01:20:45.770Z,9.3008
2023-05-19T01:21:46.733Z,9.3159
2023-05-19T01:22:47.509Z,9.3333
2023-05-19T01:23:48.675Z,9.3315
2023-05-19T01:25:50.895Z,9.1910
2023-05-19T01:26:52.477Z,9.1969
2023-05-19T01:27:53.661Z,9.0993
2023-05-19T01:28:55.883Z,9.0232
2023-05-19T01:29:57.876Z,8.9895
2023-05-19T01:30:59.793Z,9.0549
2023-05-19T01:31:59.849Z,9.3097
2023-05-19T01:33:01.625Z,9.2683
2023-05-19T01:35:01.220Z,9.3571
2023-05-19T01:36:02.256Z,9.2255
2023-05-19T01:37:03.386Z,9.1903
2023-05-19T01:38:05.549Z,9.2160
2023-05-19T01:39:06.231Z,9.2110
2023-05-19T01:41:07.313Z,9.3109
2023-05-19T01:42:08.127Z,9.4182
2023-05-19T01:44:10.769Z,9.3883
2023-05-19T01:45:12.581Z,9.2782
2023-05-19T01:49:15.993Z,9.1220
2023-05-19T01:50:16.717Z,9.0493
2023-05-19T01:51:17.193Z,8.9953
2023-05-19T01:52:19.097Z,9.2283
2023-05-19T01:53:20.990Z,9.3439
2023-05-19T01:54:22.290Z,9.3269
2023-05-19T01:55:24.317Z,9.2762
2023-05-19T01:56:26.600Z,9.1500
2023-05-19T01:57:27.569Z,9.1621
2023-05-19T01:58:28.863Z,9.2209
2023-05-19T01:59:31.727Z,9.3065
2023-05-19T02:01:32.386Z,9.2005
2023-05-19T02:02:32.576Z,9.4114
2023-05-19T02:03:33.204Z,9.3543
2023-05-19T02:04:35.766Z,9.4480
2023-05-19T02:05:36.872Z,9.3879
2023-05-19T02:06:37.694Z,9.3353
2023-05-19T02:09:42.783Z,9.3364
2023-05-19T02:10:43.354Z,9.3568
2023-05-19T02:11:44.542Z,9.2882
2023-05-19T02:12:44.658Z,9.2274
2023-05-19T02:13:45.626Z,9.2478
2023-05-19T02:14:46.654Z,9.1622
2023-05-19T02:15:47.727Z,9.1953
2023-05-19T02:16:48.925Z,9.1429
2023-05-19T02:17:51.008Z,9.2577
2023-05-19T02:23:55.271Z,9.2898
2023-05-19T02:24:56.437Z,9.2295
2023-05-19T02:26:59.912Z,9.2660
2023-05-19T02:28:01.674Z,9.2784
2023-05-19T02:29:03.281Z,9.2074
2023-05-19T02:30:04.518Z,9.0845
2023-05-19T02:31:07.173Z,9.2101
2023-05-19T02:33:07.684Z,9.2813
2023-05-19T02:34:08.445Z,9.3317
2023-05-19T02:35:09.742Z,9.2729
2023-05-19T02:36:11.296Z,9.3187
2023-05-19T02:37:13.191Z,9.2731
2023-05-19T02:38:14.837Z,9.2327
2023-05-19T02:39:16.690Z,9.4551
2023-05-19T02:40:18.137Z,9.2659
2023-05-19T02:41:20.270Z,9.3475
2023-05-19T02:43:21.657Z,9.2354
2023-05-19T02:44:22.445Z,9.3944
2023-05-19T02:45:24.037Z,9.3242
2023-05-19T02:46:25.817Z,9.2979
2023-05-19T02:47:27.615Z,9.3086
2023-05-19T02:48:29.284Z,9.2325
2023-05-19T02:49:30.598Z,9.2858
2023-05-19T03:02:34.978Z,9.1560
2023-05-19T03:05:38.129Z,9.2098
2023-05-19T03:07:39.296Z,9.0534
2023-05-19T03:08:42.335Z,8.9594
2023-05-19T03:09:41.536Z,8.8623
2023-05-19T03:10:42.315Z,8.8840
2023-05-19T03:11:44.855Z,9.0016
2023-05-19T03:12:46.002Z,9.0610
2023-05-19T03:13:46.504Z,9.1106
2023-05-19T03:14:46.772Z,9.0871
2023-05-19T03:15:48.899Z,9.1714
2023-05-19T03:16:50.399Z,9.1235
2023-05-19T03:17:51.448Z,9.0295
2023-05-19T03:19:52.826Z,9.1170
2023-05-19T03:20:53.862Z,9.0040
2023-05-19T03:22:57.098Z,8.9727
2023-05-19T03:23:57.908Z,9.0251
2023-05-19T03:24:59.343Z,9.0082
2023-05-19T03:26:02.232Z,9.0546
2023-05-19T03:33:06.938Z,8.8880
2023-05-19T03:34:08.348Z,8.8077
2023-05-19T03:35:09.149Z,8.8126
2023-05-19T03:36:10.110Z,8.6653
2023-05-19T03:37:12.276Z,8.9226
2023-05-19T03:38:14.146Z,8.8371
2023-05-19T03:42:47.299Z,9.0130
2023-05-19T03:43:48.368Z,8.9570
2023-05-19T03:46:52.708Z,8.9080
2023-05-19T03:47:54.517Z,8.9844
2023-05-19T03:48:54.962Z,8.9228
2023-05-19T03:49:56.172Z,8.8095
2023-05-19T03:50:57.394Z,8.7161
2023-05-19T03:51:59.433Z,8.6922
2023-05-19T03:53:00.289Z,8.7023
2023-05-19T03:54:01.343Z,8.6488
2023-05-19T03:55:02.594Z,8.6221
2023-05-19T03:56:04.279Z,8.6109
2023-05-19T03:57:06.115Z,8.6117
2023-05-19T03:58:07.315Z,8.4592
2023-05-19T03:59:08.395Z,8.5144
2023-05-19T04:00:09.703Z,8.7969
2023-05-19T04:01:10.849Z,8.7276
2023-05-19T04:02:12.832Z,8.8340
2023-05-19T04:03:14.338Z,8.8114
2023-05-19T04:04:15.833Z,8.7987
2023-05-19T04:05:17.260Z,8.6547
2023-05-19T04:06:19.008Z,8.7315
2023-05-19T04:07:20.467Z,8.8341
2023-05-19T04:08:23.506Z,8.7267
2023-05-19T04:11:25.471Z,8.7913
2023-05-19T04:12:27.001Z,8.7646
2023-05-19T04:13:28.039Z,8.7057
2023-05-19T04:15:31.341Z,8.5302
2023-05-19T04:16:32.295Z,8.5580
2023-05-19T04:18:32.839Z,8.5852
2023-05-19T04:19:34.619Z,8.6454
2023-05-19T04:21:34.972Z,8.9432
2023-05-19T04:22:36.115Z,8.8159
2023-05-19T04:24:37.959Z,8.8264
2023-05-19T04:25:38.497Z,8.7395
2023-05-19T04:26:39.668Z,8.7736
2023-05-19T04:27:41.195Z,8.8701
2023-05-19T04:28:43.528Z,8.8164
2023-05-19T04:30:44.288Z,8.7241
2023-05-19T04:31:44.639Z,8.8308
2023-05-19T04:33:45.536Z,8.7873
2023-05-19T04:34:47.321Z,8.9095
2023-05-19T04:39:53.649Z,9.0721
2023-05-19T04:40:55.523Z,9.0926
2023-05-19T04:41:58.030Z,9.1455
2023-05-19T04:42:58.672Z,9.2071
2023-05-19T04:44:00.925Z,9.2458
2023-05-19T04:45:01.727Z,9.1980
2023-05-19T04:46:02.754Z,9.2388
2023-05-19T04:48:05.513Z,9.3187
2023-05-19T04:49:07.817Z,9.3826
2023-05-19T04:51:07.668Z,9.3039
2023-05-19T04:52:08.891Z,9.3296
2023-05-19T04:53:10.475Z,9.3384
2023-05-19T04:54:11.835Z,9.4071
2023-05-19T04:55:12.974Z,9.4680
2023-05-19T04:56:15.038Z,9.4427
2023-05-19T04:57:17.221Z,9.5779
2023-05-19T04:58:19.104Z,9.6142
2023-05-19T04:59:20.205Z,9.5842
2023-05-19T05:00:23.237Z,9.6751
2023-05-19T05:02:23.980Z,9.6528
2023-05-19T05:03:25.597Z,9.6534
2023-05-19T05:04:26.608Z,9.7635
2023-05-19T05:05:28.208Z,9.6751
2023-05-19T05:06:29.763Z,9.6683
2023-05-19T05:08:31.015Z,9.8405
2023-05-19T05:09:33.531Z,9.7891
2023-05-19T05:10:35.705Z,9.8754
2023-05-19T05:11:35.804Z,9.8975
2023-05-19T05:12:37.412Z,9.9426
2023-05-19T05:13:39.098Z,9.8062
2023-05-19T05:15:41.823Z,9.7083
2023-05-19T05:16:43.625Z,9.9829
2023-05-19T05:17:45.492Z,10.1270
2023-05-19T05:18:47.279Z,10.1351
2023-05-19T05:19:48.618Z,10.1078
2023-05-19T05:20:49.718Z,10.1854
2023-05-19T05:21:52.341Z,10.2074
2023-05-19T05:26:57.352Z,10.0532
2023-05-19T05:27:58.996Z,10.0834
2023-05-19T05:28:59.912Z,9.9334
2023-05-19T05:32:03.529Z,9.7683
2023-05-19T05:33:04.576Z,9.6828
2023-05-19T05:34:05.392Z,9.6929
2023-05-19T05:35:06.614Z,9.7327
2023-05-19T05:36:08.393Z,9.6271
2023-05-19T05:37:08.891Z,9.6758
2023-05-19T05:38:11.336Z,9.6501
2023-05-19T05:39:12.827Z,9.6515
2023-05-19T05:40:14.754Z,9.6544
2023-05-19T05:41:14.875Z,9.6546
2023-05-19T05:42:17.237Z,9.6184
2023-05-19T05:43:16.935Z,9.5559
2023-05-19T05:44:17.706Z,9.4913
2023-05-19T05:46:20.321Z,9.5300
2023-05-19T05:48:21.814Z,9.5232
2023-05-19T05:49:24.333Z,9.4471
2023-05-19T05:50:24.543Z,9.4825
2023-05-19T05:53:26.442Z,9.5167
2023-05-19T05:55:28.152Z,9.6152
2023-05-19T05:56:29.569Z,9.4759
2023-05-19T05:57:29.716Z,9.4041
2023-05-19T05:58:31.460Z,9.4370
2023-05-19T05:59:33.076Z,9.4278
2023-05-19T06:00:34.846Z,9.4650
2023-05-19T06:01:35.702Z,9.4559
2023-05-19T06:02:37.523Z,9.4002
2023-05-19T06:03:37.576Z,9.3358
2023-05-19T06:04:39.677Z,9.3229
2023-05-19T06:05:42.075Z,9.3559
2023-05-19T06:09:59.969Z,9.3887
2023-05-19T06:11:16.974Z,9.3386
2023-05-19T06:12:18.033Z,9.3604
2023-05-19T06:13:18.240Z,9.3476
2023-05-19T06:14:20.725Z,9.3164
2023-05-19T06:15:22.112Z,9.3283
2023-05-19T06:16:23.471Z,9.3696
2023-05-19T06:17:25.228Z,9.3247
2023-05-19T06:18:26.949Z,9.3608
2023-05-19T06:19:28.844Z,9.2996
2023-05-19T06:20:29.726Z,9.2752
2023-05-19T06:21:31.420Z,9.2705
2023-05-19T06:23:32.201Z,9.2312
2023-05-19T06:24:34.373Z,9.2083
2023-05-19T06:25:34.850Z,9.2042
2023-05-19T06:26:35.222Z,9.1969
2023-05-19T06:27:37.848Z,9.2500
2023-05-19T06:28:38.488Z,9.2188
2023-05-19T06:29:39.934Z,9.2436
2023-05-19T06:30:42.858Z,9.2328
2023-05-19T06:31:44.803Z,9.2826
2023-05-19T06:37:51.846Z,9.2829
2023-05-19T06:38:53.473Z,9.2564
2023-05-19T06:39:54.403Z,9.2486
2023-05-19T06:40:56.175Z,9.2751
2023-05-19T06:41:58.494Z,9.2329
2023-05-19T06:43:00.534Z,9.2810
2023-05-19T06:44:02.708Z,9.2809
2023-05-19T06:45:03.777Z,9.3619
2023-05-19T06:46:05.766Z,9.2812
2023-05-19T06:47:07.652Z,9.3077
2023-05-19T06:48:07.606Z,9.2932
2023-05-19T06:49:09.069Z,9.3137
2023-05-19T06:50:10.680Z,9.2494
2023-05-19T06:51:12.816Z,9.3141
2023-05-19T06:52:14.262Z,9.2507
2023-05-19T06:53:15.245Z,9.2693
2023-05-19T06:54:16.511Z,9.2425
2023-05-19T06:55:17.634Z,9.3312
2023-05-19T06:56:18.659Z,9.3997
2023-05-19T06:57:32.869Z,9.4269
2023-05-19T08:56:28.579Z,11.8175
2023-05-19T08:57:30.019Z,11.9788
2023-05-19T08:58:30.557Z,11.7726
2023-05-19T09:01:33.183Z,11.5089
2023-05-19T09:03:34.276Z,12.2316
2023-05-19T09:04:34.890Z,11.8211
2023-05-19T09:05:36.693Z,11.9436
2023-05-19T09:06:38.065Z,11.7712
2023-05-19T09:07:40.111Z,11.4622
2023-05-19T09:08:40.828Z,11.7474
2023-05-19T09:09:41.575Z,12.0361
2023-05-19T09:10:42.551Z,11.9413
2023-05-19T09:11:42.991Z,11.9361
2023-05-19T09:12:45.049Z,11.4876
2023-05-19T09:13:46.193Z,11.4403
2023-05-19T09:14:48.029Z,11.1816
2023-05-19T09:15:48.389Z,11.3295
2023-05-19T09:16:49.519Z,11.6799
2023-05-19T09:17:50.576Z,11.1478
2023-05-19T09:18:50.987Z,11.6591
2023-05-19T09:19:52.949Z,11.4809
2023-05-19T09:20:53.200Z,12.0004
2023-05-19T09:21:55.246Z,11.9395
2023-05-19T09:22:55.245Z,11.6188
2023-05-19T09:23:56.616Z,11.5440
2023-05-19T09:24:56.597Z,11.2814
2023-05-19T09:25:58.162Z,10.8030
2023-05-19T09:27:00.031Z,11.3672
2023-05-19T09:28:00.335Z,11.4326
2023-05-19T09:30:01.038Z,11.4550
2023-05-19T09:31:03.307Z,11.3308
2023-05-19T09:32:03.424Z,10.9892
2023-05-19T09:33:05.762Z,11.4978
2023-05-19T09:34:05.654Z,11.3343
2023-05-19T09:35:06.075Z,10.8628
2023-05-19T09:36:06.791Z,10.8630
2023-05-19T09:37:08.483Z,11.0910
2023-05-19T09:38:09.947Z,11.1896
2023-05-19T09:39:10.518Z,11.5198
2023-05-19T09:40:13.031Z,12.1121
2023-05-19T09:41:11.775Z,11.8628
2023-05-19T09:42:13.988Z,12.0954
2023-05-19T09:43:15.971Z,12.0893
2023-05-19T09:44:17.480Z,11.6121
2023-05-19T09:45:18.194Z,12.0787
2023-05-19T09:46:20.002Z,12.2433
2023-05-19T09:47:22.099Z,12.1773
2023-05-19T09:48:22.820Z,12.1591
2023-05-19T09:49:24.293Z,11.8542
2023-05-19T09:50:25.329Z,12.1118
2023-05-19T09:51:26.202Z,12.6630
2023-05-19T09:52:27.503Z,12.7200
2023-05-19T09:53:29.607Z,12.3317
2023-05-19T09:54:31.330Z,12.2298
2023-05-19T09:56:32.640Z,12.4781
2023-05-19T09:57:34.502Z,12.5020
2023-05-19T09:58:36.715Z,12.4280
2023-05-19T09:59:37.689Z,12.5733
2023-05-19T10:00:38.560Z,12.8860
2023-05-19T10:01:40.832Z,12.4802
2023-05-19T10:02:41.296Z,12.1742
2023-05-19T10:03:41.728Z,11.9604
2023-05-19T10:04:42.472Z,12.8465
2023-05-19T10:05:42.762Z,12.8995
2023-05-19T10:06:43.597Z,13.4421
2023-05-19T10:07:45.232Z,12.9071
2023-05-19T10:08:47.357Z,12.7011
2023-05-19T10:09:48.043Z,13.4035
2023-05-19T10:10:48.655Z,13.4888
2023-05-19T10:11:49.219Z,12.7420
2023-05-19T10:12:50.188Z,12.7822
2023-05-19T10:13:51.010Z,12.2362
2023-05-19T10:15:58.229Z,13.1476
2023-05-19T10:16:53.029Z,13.1716
2023-05-19T10:17:54.022Z,13.2332
2023-05-19T10:18:54.540Z,13.0993
2023-05-19T10:19:54.765Z,13.3412
2023-05-19T10:20:55.470Z,12.7967
2023-05-19T10:21:55.680Z,12.3962
2023-05-19T10:22:56.252Z,12.5499
2023-05-19T10:24:58.165Z,12.4735
2023-05-19T10:25:59.275Z,12.5503
2023-05-19T10:27:00.465Z,12.4273
2023-05-19T10:28:02.467Z,12.0375
2023-05-19T10:29:02.722Z,12.6907
2023-05-19T10:30:03.838Z,12.6213
2023-05-19T10:31:05.406Z,12.7294
2023-05-19T10:32:06.192Z,12.7940
2023-05-19T10:33:07.606Z,12.5546
2023-05-19T10:34:08.550Z,12.7129
2023-05-19T10:35:09.791Z,13.3503
2023-05-19T10:36:10.757Z,13.1464
2023-05-19T10:37:10.962Z,12.5687
2023-05-19T10:38:11.543Z,13.0557
2023-05-19T10:39:13.462Z,12.6435
2023-05-19T10:40:13.703Z,12.9202
2023-05-19T10:41:14.820Z,12.6622
2023-05-19T10:42:15.650Z,12.8469
2023-05-19T10:43:17.094Z,12.7592
2023-05-19T10:44:17.329Z,12.8280
2023-05-19T10:45:19.127Z,12.5578
2023-05-19T10:46:20.591Z,13.0735
2023-05-19T10:47:21.227Z,13.6179
2023-05-19T10:48:21.571Z,13.5749
2023-05-19T10:49:22.294Z,12.4140
2023-05-19T10:50:22.607Z,12.5282
2023-05-19T10:51:23.467Z,12.8226
2023-05-19T10:52:23.857Z,13.4083
2023-05-19T10:53:24.745Z,13.0287
2023-05-19T10:54:25.444Z,12.8854
2023-05-19T10:55:26.044Z,13.3180
2023-05-19T10:56:28.333Z,13.5307
2023-05-19T10:57:28.879Z,13.4479
2023-05-19T10:58:31.061Z,13.9325
2023-05-19T10:59:32.151Z,13.3390
2023-05-19T11:00:34.328Z,14.3006
2023-05-19T11:01:34.966Z,13.9940
2023-05-19T11:02:35.370Z,13.5631
2023-05-19T11:03:36.961Z,13.6108
2023-05-19T11:04:37.275Z,13.8307
2023-05-19T11:05:37.920Z,13.7926
2023-05-19T11:06:37.978Z,13.5715
2023-05-19T11:07:38.404Z,13.4414
2023-05-19T11:08:39.109Z,12.8670
2023-05-19T11:09:40.686Z,12.9211
2023-05-19T11:10:42.323Z,13.1262
2023-05-19T11:11:44.408Z,13.3117
2023-05-19T11:12:45.548Z,12.6616
2023-05-19T11:13:46.310Z,12.8853
2023-05-19T11:14:46.344Z,13.3749
2023-05-19T11:15:47.241Z,13.9215
2023-05-19T11:17:47.614Z,13.8049
2023-05-19T11:18:47.737Z,13.0951
2023-05-19T11:19:48.256Z,13.9255
2023-05-19T11:20:49.049Z,14.2605
2023-05-19T11:21:49.567Z,14.4499
2023-05-19T11:22:49.854Z,14.6063
2023-05-19T11:23:50.182Z,14.1165
2023-05-19T11:24:50.909Z,14.5055
2023-05-19T11:25:52.645Z,14.0989
2023-05-19T11:26:53.270Z,13.8078
2023-05-19T11:27:55.216Z,13.8148
2023-05-19T11:28:55.600Z,13.3817
2023-05-19T11:29:55.914Z,13.2401
2023-05-19T11:30:56.548Z,12.8742
2023-05-19T11:31:57.000Z,12.6338
2023-05-19T11:32:57.701Z,13.0073
2023-05-19T11:33:59.208Z,13.2758
2023-05-19T11:34:59.223Z,13.2930
2023-05-19T11:36:01.310Z,13.4211
2023-05-19T11:37:02.882Z,13.9572
2023-05-19T11:38:03.657Z,14.7948
2023-05-19T11:39:05.102Z,14.6325
2023-05-19T11:40:06.797Z,14.4993
2023-05-19T11:41:08.034Z,14.3746
2023-05-19T11:42:09.419Z,15.4739
2023-05-19T11:43:10.050Z,15.5328
2023-05-19T11:44:11.021Z,16.0918
2023-05-19T11:45:11.766Z,15.4828
2023-05-19T11:46:13.293Z,14.9232
2023-05-19T11:47:14.613Z,14.8078
2023-05-19T11:48:16.540Z,14.7334
2023-05-19T11:49:17.813Z,14.5192
2023-05-19T11:50:19.013Z,14.5892
2023-05-19T11:51:19.180Z,14.5465
2023-05-19T11:52:19.571Z,14.7627
2023-05-19T11:53:20.770Z,14.5821
2023-05-19T11:54:22.759Z,15.4993
2023-05-19T11:55:23.648Z,14.6474
2023-05-19T11:56:24.083Z,15.2164
2023-05-19T11:57:26.094Z,15.7267
2023-05-19T11:58:26.883Z,15.3096
2023-05-19T11:59:27.540Z,15.2511
2023-05-19T12:00:28.852Z,15.9792
2023-05-19T12:01:29.584Z,16.3447
2023-05-19T12:02:30.019Z,16.3969
2023-05-19T12:03:30.740Z,15.1644
2023-05-19T12:04:31.325Z,16.5164
2023-05-19T12:05:36.654Z,16.1045
2023-05-19T12:09:05.147Z,15.8946
2023-05-19T12:10:05.997Z,15.3318
2023-05-19T12:11:07.533Z,15.0436
2023-05-19T12:12:07.798Z,15.0978
2023-05-19T12:13:09.405Z,14.8381
2023-05-19T12:14:11.098Z,14.7377
2023-05-19T12:15:13.177Z,15.3944
2023-05-19T12:16:14.738Z,15.1760
2023-05-19T12:17:14.930Z,14.9716
2023-05-19T12:18:14.936Z,15.1517
2023-05-19T12:19:15.652Z,15.7457
2023-05-19T12:20:16.491Z,14.7976
2023-05-19T12:21:17.135Z,14.9567
2023-05-19T12:22:17.816Z,15.4329
2023-05-19T12:23:18.223Z,15.4267
2023-05-19T12:24:19.169Z,15.8872
2023-05-19T12:25:20.089Z,15.2983
2023-05-19T12:26:20.413Z,15.9304
2023-05-19T12:27:20.754Z,15.7160
2023-05-19T12:28:20.738Z,15.7773
2023-05-19T12:29:21.595Z,15.6812
2023-05-19T12:30:21.978Z,16.4230
2023-05-19T12:31:23.261Z,16.0453
2023-05-19T12:32:24.962Z,16.1420
2023-05-19T12:33:26.444Z,15.3327
2023-05-19T12:34:27.252Z,16.0438
2023-05-19T12:35:29.076Z,15.8330
2023-05-19T12:36:30.574Z,15.5510
2023-05-19T12:37:31.618Z,15.8978
2023-05-19T12:38:32.584Z,15.9670
2023-05-19T12:39:33.562Z,16.5703
2023-05-19T12:40:35.087Z,16.2726
2023-05-19T12:41:35.462Z,15.6645
2023-05-19T12:42:35.633Z,16.0329
2023-05-19T12:43:36.647Z,15.8073
2023-05-19T12:45:39.571Z,15.6029
2023-05-19T12:46:40.224Z,15.2940
2023-05-19T12:47:41.910Z,15.6041
2023-05-19T12:48:42.364Z,15.3492
2023-05-19T12:49:43.779Z,15.0935
2023-05-19T12:50:44.523Z,15.0632
2023-05-19T12:51:46.724Z,15.3622
2023-05-19T12:52:46.921Z,15.1698
2023-05-19T12:53:48.670Z,14.7011
2023-05-19T12:54:49.861Z,14.9568
2023-05-19T12:55:50.840Z,15.0767
2023-05-19T12:56:51.860Z,15.4501
2023-05-19T12:57:52.077Z,15.5512
2023-05-19T12:58:52.113Z,15.5199
2023-05-19T12:59:54.587Z,15.2689
2023-05-19T13:01:55.149Z,15.2700
2023-05-19T13:02:55.492Z,14.8769
2023-05-19T13:03:56.144Z,15.6490
2023-05-19T13:04:57.313Z,15.7381
2023-05-19T13:05:59.112Z,15.8357
2023-05-19T13:06:59.590Z,15.5924
2023-05-19T13:08:01.322Z,15.4023
2023-05-19T13:09:02.838Z,16.1189
2023-05-19T13:10:04.236Z,15.9575
2023-05-19T13:11:04.945Z,15.5913
2023-05-19T13:12:06.273Z,15.7367
2023-05-19T13:13:06.500Z,15.5584
2023-05-19T13:16:11.332Z,14.4936
2023-05-19T13:17:11.722Z,14.4992
2023-05-19T13:18:12.350Z,14.3273
2023-05-19T13:19:24.285Z,14.3194
2023-05-19T13:20:43.446Z,14.1787
2023-05-19T13:21:44.537Z,14.1248
2023-05-19T13:22:45.823Z,14.2405
2023-05-19T13:23:47.564Z,14.1353
2023-05-19T13:24:47.878Z,14.3558
2023-05-19T13:25:49.382Z,14.5595
2023-05-19T13:26:50.238Z,14.6231
2023-05-19T13:27:51.754Z,14.7024
2023-05-19T13:28:51.905Z,14.6223
2023-05-19T13:29:53.184Z,14.6915
2023-05-19T13:30:54.253Z,14.8146
2023-05-19T13:31:55.222Z,14.5916
2023-05-19T13:32:56.815Z,14.4020
2023-05-19T13:33:57.389Z,14.9241
2023-05-19T13:34:58.174Z,14.6959
2023-05-19T13:35:59.305Z,14.3759
2023-05-19T13:37:00.054Z,14.2586
2023-05-19T13:38:01.300Z,14.0843
2023-05-19T13:39:02.495Z,14.1614
2023-05-19T13:40:02.819Z,14.1107
2023-05-19T13:41:03.060Z,13.9008
2023-05-19T13:42:03.921Z,14.1204
2023-05-19T13:43:05.264Z,14.2439
2023-05-19T13:44:05.537Z,14.5634
2023-05-19T13:45:07.752Z,14.1858
2023-05-19T13:46:08.859Z,14.2931
2023-05-19T13:47:10.434Z,14.4579
2023-05-19T13:48:11.094Z,14.4581
2023-05-19T13:49:12.125Z,14.6049
2023-05-19T13:50:12.945Z,14.4939
2023-05-19T13:51:13.483Z,14.6899
2023-05-19T13:52:14.261Z,14.8619
2023-05-19T13:54:14.476Z,14.9665
2023-05-19T13:55:16.129Z,14.7348
2023-05-19T13:56:17.086Z,14.7982
2023-05-19T13:57:17.618Z,15.0584
2023-05-19T13:58:18.078Z,14.9388
2023-05-19T13:59:18.398Z,14.5360
2023-05-19T14:00:20.138Z,14.4437
2023-05-19T14:01:21.508Z,14.4743
2023-05-19T14:02:22.484Z,14.5352
2023-05-19T14:03:22.798Z,14.5676
2023-05-19T14:04:24.941Z,14.5094
2023-05-19T14:05:25.154Z,14.2344
2023-05-19T14:06:26.950Z,14.0909
2023-05-19T14:07:27.947Z,13.9891
2023-05-19T14:08:28.589Z,13.8742
2023-05-19T14:09:29.954Z,13.8452
2023-05-19T14:10:31.192Z,13.7813
2023-05-19T14:11:32.532Z,13.8401
2023-05-19T14:12:43.674Z,13.8191
2023-05-19T14:14:04.438Z,13.7904
2023-05-19T14:15:05.125Z,13.7605
2023-05-19T14:16:05.611Z,13.7207
2023-05-19T14:17:06.266Z,13.6871
2023-05-19T14:18:07.447Z,13.7997
2023-05-19T14:19:07.407Z,13.7645
2023-05-19T14:20:07.524Z,13.7051
2023-05-19T14:21:07.826Z,13.7988
2023-05-19T14:22:09.725Z,13.8324
2023-05-19T14:23:11.090Z,14.0032
2023-05-19T14:25:12.743Z,14.0707
2023-05-19T14:26:12.914Z,14.1514
2023-05-19T14:27:14.358Z,14.0113
2023-05-19T14:29:14.494Z,14.1054
2023-05-19T14:30:14.909Z,14.1607
2023-05-19T14:31:16.781Z,13.9487
2023-05-19T14:32:17.490Z,14.0136
2023-05-19T14:33:19.040Z,13.9243
2023-05-19T14:34:20.123Z,14.1241
2023-05-19T14:35:20.548Z,13.9639
2023-05-19T14:36:21.140Z,13.8601
2023-05-19T14:37:23.161Z,13.8374
2023-05-19T14:38:26.047Z,13.8291
2023-05-19T14:39:25.561Z,13.7842
2023-05-19T14:40:25.564Z,13.9313
2023-05-19T14:41:25.655Z,13.9535
2023-05-19T14:42:26.699Z,13.8980
2023-05-19T14:43:27.764Z,14.0698
2023-05-19T14:44:29.210Z,14.0607
2023-05-19T14:45:29.381Z,13.9886
2023-05-19T14:46:29.831Z,13.9493
2023-05-19T14:47:31.140Z,14.0187
2023-05-19T14:48:31.763Z,14.2227
2023-05-19T14:49:31.827Z,14.4743
2023-05-19T14:50:32.223Z,14.2582
2023-05-19T14:51:32.690Z,14.5436
2023-05-19T14:52:33.217Z,14.5709
2023-05-19T14:53:34.119Z,14.6005
2023-05-19T14:54:34.789Z,14.6345
2023-05-19T14:55:36.290Z,14.3405
2023-05-19T14:56:36.825Z,14.1527
2023-05-19T14:57:37.670Z,14.0009
2023-05-19T14:58:38.336Z,14.1412
2023-05-19T14:59:39.337Z,14.1885
2023-05-19T15:00:39.426Z,14.0580
2023-05-19T15:01:40.312Z,14.0047
2023-05-19T15:02:40.758Z,14.3174
2023-05-19T15:03:42.499Z,14.2464
2023-05-19T15:04:44.366Z,14.1233
2023-05-19T15:05:44.555Z,14.2178
2023-05-19T15:06:48.071Z,14.0432
2023-05-19T15:07:45.078Z,14.1395
2023-05-19T15:08:45.932Z,14.1260
2023-05-19T15:09:46.381Z,14.0317
2023-05-19T15:10:46.859Z,14.1515
2023-05-19T15:11:47.529Z,14.3066
2023-05-19T15:12:48.008Z,14.4942
2023-05-19T15:14:49.033Z,14.1400
2023-05-19T15:15:49.091Z,14.2973
2023-05-19T15:16:50.622Z,14.3326
2023-05-19T15:17:51.086Z,14.1959
2023-05-19T15:18:53.062Z,14.0423
2023-05-19T15:19:54.611Z,14.0099
2023-05-19T15:21:55.912Z,13.9164
2023-05-19T15:22:57.172Z,13.8096
2023-05-19T15:23:58.404Z,13.6696
2023-05-19T15:24:59.931Z,13.6495
2023-05-19T15:26:00.140Z,13.5290
2023-05-19T15:27:01.324Z,13.4105
2023-05-19T15:28:02.677Z,13.3892
2023-05-19T15:30:02.813Z,13.2479
2023-05-19T15:31:05.027Z,13.2187
2023-05-19T15:32:06.621Z,13.2059
2023-05-19T15:33:07.007Z,13.2052
2023-05-19T15:35:10.276Z,13.1931
2023-05-19T15:36:12.313Z,13.2198
2023-05-19T15:37:13.158Z,13.1723
2023-05-19T15:38:14.802Z,13.1890
2023-05-19T15:39:16.252Z,13.2153
2023-05-19T15:40:17.866Z,13.1417
2023-05-19T15:41:18.791Z,13.1843
2023-05-19T15:42:20.231Z,13.1450
2023-05-19T15:43:20.865Z,13.1592
2023-05-19T15:44:21.150Z,13.2068
2023-05-19T15:45:21.681Z,13.1767
2023-05-19T15:46:23.233Z,13.1649
2023-05-19T15:47:24.807Z,13.3326
2023-05-19T15:48:26.741Z,13.2689
2023-05-19T15:49:29.622Z,13.2307
2023-05-19T15:56:37.432Z,13.2630
2023-05-19T16:00:43.572Z,13.3814
2023-05-19T16:01:44.224Z,13.4905
2023-05-19T16:02:44.279Z,13.4841
2023-05-19T16:03:46.394Z,13.4779
2023-05-19T16:04:46.878Z,13.4197
2023-05-19T16:05:47.970Z,13.3980
2023-05-19T16:06:48.507Z,13.5838
2023-05-19T16:07:48.699Z,13.4028
2023-05-19T16:08:51.523Z,13.6198
2023-05-19T16:09:52.934Z,13.6164
2023-05-19T16:10:55.454Z,13.6277
2023-05-19T16:11:55.957Z,13.6336
2023-05-19T16:21:05.260Z,13.7539
2023-05-19T16:22:05.950Z,13.6667
2023-05-19T16:23:07.368Z,14.1582
2023-05-19T16:24:08.398Z,14.1885
2023-05-19T16:25:08.462Z,14.2859
2023-05-19T16:26:09.506Z,14.0540
2023-05-19T16:27:10.935Z,14.0831
2023-05-19T16:28:11.802Z,14.1863
2023-05-19T16:29:13.879Z,14.1105
2023-05-19T16:30:14.664Z,14.0752
2023-05-19T16:31:16.128Z,13.9908
2023-05-19T16:32:16.623Z,13.9252
2023-05-19T16:41:25.870Z,13.6717
2023-05-19T16:42:26.274Z,13.6665
2023-05-19T16:43:28.654Z,13.7171
2023-05-19T16:44:28.743Z,13.6957
2023-05-19T16:48:32.294Z,13.4869
2023-05-19T16:49:33.021Z,13.4386
2023-05-19T16:50:35.117Z,13.3253
2023-05-19T16:51:36.086Z,13.4282
2023-05-19T16:52:38.058Z,13.5017
2023-05-19T16:53:40.770Z,13.5165
2023-05-19T16:54:41.400Z,13.3994
2023-05-19T17:01:50.835Z,13.1954